createdAt,value
2018-12-14T00:01:40.485Z,29.57
2018-12-14T00:04:09.310Z,34.63
2018-12-14T00:06:38.176Z,26.43
2018-12-14T00:09:07.207Z,27.37
2018-12-14T00:11:36.024Z,30.20
2018-12-14T00:14:04.879Z,30.50
2018-12-14T00:16:33.705Z,31.50
2018-12-14T00:19:02.525Z,32.40
2018-12-14T00:21:31.932Z,48.53
2018-12-14T00:24:00.764Z,38.03
2018-12-14T00:26:29.613Z,35.00
2018-12-14T00:28:59.692Z,44.00
2018-12-14T00:31:28.589Z,37.10
2018-12-14T00:33:57.410Z,41.47
2018-12-14T00:36:27.610Z,49.67
2018-12-14T00:38:56.430Z,45.03
2018-12-14T00:41:25.249Z,40.83
2018-12-14T00:43:54.125Z,41.53
2018-12-14T00:46:22.961Z,32.50
2018-12-14T00:48:51.793Z,28.63
2018-12-14T00:51:20.793Z,30.03
2018-12-14T00:53:49.609Z,33.70
2018-12-14T00:56:18.446Z,37.73
2018-12-14T00:58:47.312Z,46.07
2018-12-14T01:01:16.130Z,50.13
2018-12-14T01:03:45.018Z,48.93
2018-12-14T01:06:13.822Z,27.60
2018-12-14T01:08:42.793Z,22.93
2018-12-14T01:11:11.665Z,21.57
2018-12-14T01:13:40.532Z,24.37
2018-12-14T01:16:09.360Z,32.00
2018-12-14T01:18:38.405Z,27.53
2018-12-14T01:21:07.226Z,27.00
2018-12-14T01:23:36.273Z,23.07
2018-12-14T01:26:05.166Z,27.13
2018-12-14T01:28:33.988Z,24.23
2018-12-14T01:31:02.836Z,18.27
2018-12-14T01:33:31.702Z,28.65
2018-12-14T01:36:00.529Z,16.17
2018-12-14T01:38:29.637Z,17.17
2018-12-14T01:40:58.620Z,14.37
2018-12-14T01:43:27.445Z,20.03
2018-12-14T01:45:56.331Z,22.33
2018-12-14T01:48:25.148Z,23.40
2018-12-14T01:50:54.041Z,20.90
2018-12-14T01:53:23.044Z,24.20
2018-12-14T01:55:51.907Z,29.90
2018-12-14T01:58:22.101Z,26.93
2018-12-14T02:00:50.961Z,29.40
2018-12-14T02:03:19.817Z,26.50
2018-12-14T02:05:48.634Z,29.50
2018-12-14T02:08:17.502Z,26.03
2018-12-14T02:10:46.333Z,28.50
2018-12-14T02:13:15.205Z,24.30
2018-12-14T02:15:44.039Z,32.27
2018-12-14T02:18:12.864Z,21.23
2018-12-14T02:20:41.729Z,26.23
2018-12-14T02:23:10.533Z,28.27
2018-12-14T02:25:39.336Z,32.00
2018-12-14T02:28:08.254Z,40.53
2018-12-14T02:30:44.283Z,28.10
2018-12-14T02:33:13.191Z,33.10
2018-12-14T02:35:42.026Z,29.73
2018-12-14T02:38:10.867Z,29.97
2018-12-14T02:40:39.744Z,29.20
2018-12-14T02:43:08.599Z,30.10
2018-12-14T02:45:37.450Z,33.03
2018-12-14T02:48:06.289Z,33.77
2018-12-14T02:50:35.126Z,34.30
2018-12-14T02:53:05.028Z,32.60
2018-12-14T02:55:33.989Z,36.50
2018-12-14T02:58:02.940Z,31.87
2018-12-14T03:00:31.789Z,34.30
2018-12-14T03:03:00.737Z,33.03
2018-12-14T03:05:29.593Z,33.10
2018-12-14T03:07:58.432Z,31.83
2018-12-14T03:10:28.501Z,29.83
2018-12-14T03:12:57.386Z,36.90
2018-12-14T03:15:26.222Z,42.33
2018-12-14T03:17:55.061Z,38.27
2018-12-14T03:20:23.989Z,34.37
2018-12-14T03:22:52.818Z,35.30
2018-12-14T03:25:21.807Z,37.77
2018-12-14T03:27:50.674Z,33.27
2018-12-14T03:30:19.556Z,33.10
2018-12-14T03:32:48.507Z,38.63
2018-12-14T03:35:17.384Z,36.57
2018-12-14T03:37:46.233Z,34.13
2018-12-14T03:40:15.148Z,36.10
2018-12-14T03:42:44.116Z,30.60
2018-12-14T03:45:12.997Z,28.27
2018-12-14T03:47:41.837Z,27.93
2018-12-14T03:50:10.807Z,29.23
2018-12-14T03:52:39.706Z,30.97
2018-12-14T03:55:08.686Z,25.87
2018-12-14T03:57:37.560Z,28.63
2018-12-14T04:00:09.896Z,32.20
2018-12-14T04:02:38.848Z,25.03
2018-12-14T04:05:07.893Z,22.80
2018-12-14T04:07:36.798Z,26.97
2018-12-14T04:10:06.737Z,26.17
2018-12-14T04:12:41.567Z,21.77
2018-12-14T04:15:06.600Z,27.43
2018-12-14T04:17:35.464Z,23.37
2018-12-14T04:20:04.958Z,25.80
2018-12-14T04:22:33.909Z,29.00
2018-12-14T04:25:02.774Z,35.83
2018-12-14T04:27:31.620Z,40.53
2018-12-14T04:30:01.756Z,45.87
2018-12-14T04:32:30.596Z,26.50
2018-12-14T04:34:59.419Z,25.23
2018-12-14T04:37:28.315Z,26.57
2018-12-14T04:39:57.233Z,28.20
2018-12-14T04:42:26.618Z,33.33
2018-12-14T04:44:55.470Z,35.00
2018-12-14T04:47:24.365Z,32.20
2018-12-14T04:49:53.530Z,28.77
2018-12-14T04:52:22.403Z,27.20
2018-12-14T04:54:51.320Z,25.00
2018-12-14T04:57:20.126Z,33.63
2018-12-14T04:59:49.049Z,31.73
2018-12-14T05:02:17.898Z,29.37
2018-12-14T05:04:46.743Z,29.30
2018-12-14T05:07:15.552Z,31.13
2018-12-14T05:09:44.391Z,28.83
2018-12-14T05:12:13.343Z,30.80
2018-12-14T05:14:42.509Z,30.33
2018-12-14T05:17:11.380Z,35.30
2018-12-14T05:19:40.212Z,32.57
2018-12-14T05:22:09.075Z,33.23
2018-12-14T05:24:37.964Z,43.73
2018-12-14T05:27:07.166Z,57.93
2018-12-14T05:29:36.060Z,49.07
2018-12-14T05:32:04.904Z,52.70
2018-12-14T05:34:33.728Z,50.80
2018-12-14T05:37:02.612Z,62.77
2018-12-14T05:39:31.476Z,40.07
2018-12-14T05:42:00.360Z,55.33
2018-12-14T05:44:29.194Z,62.63
2018-12-14T05:46:58.070Z,36.50
2018-12-14T05:49:27.073Z,29.27
2018-12-14T05:51:57.581Z,34.13
2018-12-14T05:54:26.532Z,38.93
2018-12-14T05:56:55.369Z,39.03
2018-12-14T05:59:24.208Z,38.90
2018-12-14T06:01:53.109Z,39.57
2018-12-14T06:04:21.994Z,21.37
2018-12-14T06:06:51.113Z,24.70
2018-12-14T06:09:19.959Z,36.67
2018-12-14T06:11:48.768Z,34.90
2018-12-14T06:14:17.628Z,41.00
2018-12-14T06:16:46.901Z,43.50
2018-12-14T06:19:15.740Z,49.97
2018-12-14T06:21:44.586Z,48.73
2018-12-14T06:24:14.404Z,48.23
2018-12-14T06:26:43.286Z,50.23
2018-12-14T06:29:12.108Z,43.60
2018-12-14T06:31:40.980Z,51.93
2018-12-14T06:34:09.851Z,54.47
2018-12-14T06:36:38.675Z,57.40
2018-12-14T06:39:07.682Z,62.13
2018-12-14T06:41:36.770Z,73.93
2018-12-14T06:44:05.592Z,44.63
2018-12-14T06:46:34.458Z,51.53
2018-12-14T06:49:03.271Z,50.13
2018-12-14T06:51:32.108Z,43.73
2018-12-14T06:54:00.967Z,38.67
2018-12-14T06:56:30.226Z,37.20
2018-12-14T06:58:59.037Z,42.13
2018-12-14T07:01:27.901Z,44.80
2018-12-14T07:03:56.745Z,41.27
2018-12-14T07:06:25.680Z,53.33
2018-12-14T07:08:54.541Z,50.80
2018-12-14T07:11:23.384Z,65.20
2018-12-14T07:13:52.349Z,84.37
2018-12-14T07:16:21.192Z,61.83
2018-12-14T07:18:50.170Z,50.03
2018-12-14T07:21:19.036Z,40.67
2018-12-14T07:23:47.877Z,42.13
2018-12-14T07:26:18.032Z,43.87
2018-12-14T07:28:46.891Z,41.83
2018-12-14T07:31:15.760Z,36.73
2018-12-14T07:33:44.646Z,38.03
2018-12-14T07:36:13.472Z,41.00
2018-12-14T07:38:48.109Z,46.40
2018-12-14T07:41:14.070Z,51.37
2018-12-14T07:43:42.883Z,47.80
2018-12-14T07:46:12.615Z,46.70
2018-12-14T07:48:41.436Z,40.53
2018-12-14T07:51:10.258Z,43.50
2018-12-14T07:53:39.189Z,40.50
2018-12-14T07:56:08.049Z,40.33
2018-12-14T07:58:38.697Z,42.93
2018-12-14T08:01:07.672Z,55.07
2018-12-14T08:03:36.932Z,44.87
2018-12-14T08:06:07.062Z,48.33
2018-12-14T08:08:35.887Z,52.73
2018-12-14T08:11:04.737Z,54.33
2018-12-14T08:13:34.925Z,63.13
2018-12-14T08:16:03.889Z,60.70
2018-12-14T08:18:32.699Z,55.37
2018-12-14T08:21:01.567Z,47.70
2018-12-14T08:23:30.383Z,55.57
2018-12-14T08:25:59.234Z,40.50
2018-12-14T08:28:28.126Z,39.43
2018-12-14T08:30:56.985Z,36.53
2018-12-14T08:33:25.866Z,41.87
2018-12-14T08:35:54.689Z,37.43
2018-12-14T08:38:23.543Z,35.63
2018-12-14T08:40:52.431Z,34.27
2018-12-14T08:43:21.266Z,27.40
2018-12-14T08:45:50.115Z,34.80
2018-12-14T08:48:19.046Z,32.23
2018-12-14T08:50:47.958Z,30.57
2018-12-14T08:53:17.036Z,31.70
2018-12-14T08:55:45.925Z,27.57
2018-12-14T08:58:14.787Z,27.13
2018-12-14T09:00:43.629Z,31.20
2018-12-14T09:03:12.489Z,25.93
2018-12-14T09:05:41.319Z,25.93
2018-12-14T09:08:10.163Z,22.33
2018-12-14T09:10:40.313Z,23.90
2018-12-14T09:13:09.121Z,32.53
2018-12-14T09:15:38.033Z,41.60
2018-12-14T09:18:06.873Z,23.73
2018-12-14T09:20:35.689Z,26.57
2018-12-14T09:23:04.637Z,23.83
2018-12-14T09:25:33.550Z,28.10
2018-12-14T09:28:02.380Z,30.60
2018-12-14T09:30:32.482Z,19.60
2018-12-14T09:33:01.324Z,16.53
2018-12-14T09:35:31.423Z,15.93
2018-12-14T09:38:00.277Z,16.60
2018-12-14T09:40:29.156Z,16.90
2018-12-14T09:42:57.992Z,16.20
2018-12-14T09:45:26.817Z,20.77
2018-12-14T09:47:55.661Z,24.17
2018-12-14T09:50:24.574Z,28.20
2018-12-14T09:52:54.952Z,23.30
2018-12-14T09:55:23.870Z,23.23
2018-12-14T09:57:52.736Z,25.10
2018-12-14T10:00:21.557Z,24.37
2018-12-14T10:02:50.387Z,25.40
2018-12-14T10:05:19.346Z,24.27
2018-12-14T10:07:48.256Z,26.53
2018-12-14T10:10:17.203Z,29.53
2018-12-14T10:12:46.077Z,25.57
2018-12-14T10:15:14.952Z,27.90
2018-12-14T10:17:43.785Z,34.53
2018-12-14T10:20:12.742Z,45.27
2018-12-14T10:22:41.722Z,39.83
2018-12-14T10:25:10.690Z,40.17
2018-12-14T10:27:39.620Z,41.57
2018-12-14T10:30:09.414Z,36.85
2018-12-14T10:32:38.273Z,42.87
2018-12-14T10:35:08.610Z,45.10
2018-12-14T10:37:37.751Z,49.10
2018-12-14T10:40:09.457Z,50.30
2018-12-14T10:42:38.318Z,44.43
2018-12-14T10:45:07.727Z,51.93
2018-12-14T10:47:36.903Z,47.77
2018-12-14T10:50:06.015Z,44.17
2018-12-14T10:52:34.892Z,49.33
2018-12-14T10:55:05.065Z,48.80
2018-12-14T10:57:36.000Z,47.67
2018-12-14T11:00:07.626Z,46.57
2018-12-14T11:02:37.837Z,53.50
2018-12-14T11:05:06.939Z,40.33
2018-12-14T11:07:35.790Z,36.43
2018-12-14T11:10:04.684Z,38.03
2018-12-14T11:12:33.557Z,36.17
2018-12-14T11:15:02.415Z,40.23
2018-12-14T11:17:31.240Z,33.67
2018-12-14T11:20:00.141Z,28.23
2018-12-14T11:22:28.981Z,26.93
2018-12-14T11:24:57.831Z,22.77
2018-12-14T11:27:26.850Z,22.00
2018-12-14T11:29:55.668Z,27.60
2018-12-14T11:32:24.524Z,25.77
2018-12-14T11:34:53.576Z,25.33
2018-12-14T11:37:22.588Z,19.53
2018-12-14T11:39:51.449Z,20.13
2018-12-14T11:42:20.298Z,25.70
2018-12-14T11:44:49.140Z,20.87
2018-12-14T11:47:18.446Z,17.80
2018-12-14T11:49:48.540Z,19.20
2018-12-14T11:52:17.602Z,22.70
2018-12-14T11:54:46.442Z,21.67
2018-12-14T11:57:15.388Z,24.83
2018-12-14T11:59:44.332Z,24.13
2018-12-14T12:02:13.238Z,22.27
2018-12-14T12:04:42.157Z,23.60
2018-12-14T12:07:12.368Z,25.20
2018-12-14T12:09:41.196Z,28.40
2018-12-14T12:12:10.068Z,28.73
2018-12-14T12:14:40.413Z,26.07
2018-12-14T12:17:09.249Z,28.73
2018-12-14T12:19:38.089Z,29.43
2018-12-14T12:22:06.988Z,35.85
2018-12-14T12:24:35.829Z,35.77
2018-12-14T12:27:04.660Z,34.03
2018-12-14T12:29:33.561Z,38.23
2018-12-14T12:32:02.376Z,35.90
2018-12-14T12:34:32.426Z,31.83
2018-12-14T12:37:01.233Z,32.17
2018-12-14T12:39:30.137Z,33.47
2018-12-14T12:41:58.939Z,35.37
2018-12-14T12:44:33.289Z,32.13
2018-12-14T12:46:58.696Z,33.37
2018-12-14T12:49:27.505Z,31.20
2018-12-14T12:51:57.516Z,32.50
2018-12-14T12:54:26.415Z,29.83
2018-12-14T12:56:55.320Z,33.10
2018-12-14T12:59:25.804Z,28.10
2018-12-14T13:01:55.550Z,24.83
2018-12-14T13:04:24.391Z,25.80
2018-12-14T13:06:53.225Z,25.90
2018-12-14T13:09:22.096Z,26.50
2018-12-14T13:11:50.956Z,27.70
2018-12-14T13:14:19.772Z,22.80
2018-12-14T13:16:48.661Z,21.87
2018-12-14T13:19:17.680Z,18.33
2018-12-14T13:21:46.531Z,19.37
2018-12-14T13:24:15.407Z,16.70
2018-12-14T13:26:44.332Z,23.07
2018-12-14T13:29:13.146Z,19.97
2018-12-14T13:31:42.064Z,21.43
2018-12-14T13:34:10.992Z,19.63
2018-12-14T13:36:39.836Z,20.47
2018-12-14T13:39:08.768Z,19.93
2018-12-14T13:41:37.671Z,21.87
2018-12-14T13:44:07.796Z,19.33
2018-12-14T13:46:36.664Z,19.20
2018-12-14T13:49:05.635Z,20.93
2018-12-14T13:51:34.550Z,24.03
2018-12-14T13:54:03.393Z,20.07
2018-12-14T13:56:32.228Z,17.10
2018-12-14T13:59:01.078Z,17.03
2018-12-14T14:01:30.049Z,16.33
2018-12-14T14:03:58.874Z,17.30
2018-12-14T14:06:27.700Z,20.13
2018-12-14T14:08:56.662Z,17.27
2018-12-14T14:11:25.485Z,14.17
2018-12-14T14:13:54.398Z,16.37
2018-12-14T14:16:23.317Z,19.07
2018-12-14T14:18:52.187Z,19.73
2018-12-14T14:21:21.017Z,16.20
2018-12-14T14:23:49.875Z,15.87
2018-12-14T14:26:18.706Z,20.23
2018-12-14T14:28:47.633Z,18.83
2018-12-14T14:31:17.776Z,26.60
2018-12-14T14:33:46.665Z,18.27
2018-12-14T14:36:15.646Z,19.30
2018-12-14T14:38:44.615Z,18.70
2018-12-14T14:41:13.441Z,18.70
2018-12-14T14:43:42.504Z,16.70
2018-12-14T14:46:11.353Z,16.57
2018-12-14T14:48:40.180Z,19.33
2018-12-14T14:51:09.963Z,17.77
2018-12-14T14:53:38.807Z,18.90
2018-12-14T14:56:07.696Z,18.80
2018-12-14T14:58:36.684Z,15.50
2018-12-14T15:01:05.559Z,15.37
2018-12-14T15:03:34.444Z,18.33
2018-12-14T15:06:03.425Z,15.53
2018-12-14T15:08:32.356Z,17.57
2018-12-14T15:11:01.251Z,13.63
2018-12-14T15:13:30.997Z,17.47
2018-12-14T15:16:00.007Z,16.73
2018-12-14T15:18:28.870Z,19.47
2018-12-14T15:20:57.771Z,17.83
2018-12-14T15:23:26.616Z,20.93
2018-12-14T15:25:55.477Z,21.30
2018-12-14T15:28:24.351Z,18.23
2018-12-14T15:30:53.300Z,18.87
2018-12-14T15:33:22.158Z,21.57
2018-12-14T15:35:51.041Z,22.77
2018-12-14T15:38:19.989Z,20.27
2018-12-14T15:40:48.842Z,16.20
2018-12-14T15:43:17.781Z,19.60
2018-12-14T15:45:46.678Z,22.80
2018-12-14T15:48:15.604Z,17.67
2018-12-14T15:50:44.451Z,19.90
2018-12-14T15:53:13.285Z,23.10
2018-12-14T15:55:42.130Z,23.53
2018-12-14T15:58:12.285Z,20.30
2018-12-14T16:00:41.065Z,21.73
2018-12-14T16:03:09.962Z,18.30
2018-12-14T16:05:38.955Z,20.50
2018-12-14T16:08:07.778Z,18.63
2018-12-14T16:10:36.649Z,19.37
2018-12-14T16:13:05.485Z,20.80
2018-12-14T16:15:34.352Z,19.53
2018-12-14T16:18:03.271Z,21.13
2018-12-14T16:20:32.117Z,18.60
2018-12-14T16:23:01.013Z,24.30
2018-12-14T16:25:32.415Z,21.80
2018-12-14T16:28:01.273Z,25.33
2018-12-14T16:30:31.538Z,24.90
2018-12-14T16:33:00.402Z,24.90
2018-12-14T16:35:29.275Z,27.63
2018-12-14T16:37:58.118Z,24.97
2018-12-14T16:40:26.940Z,24.10
2018-12-14T16:42:55.796Z,29.50
2018-12-14T16:45:26.553Z,26.43
2018-12-14T16:47:55.581Z,26.53
2018-12-14T16:50:25.788Z,26.20
2018-12-14T16:52:54.629Z,27.63
2018-12-14T16:55:23.472Z,25.53
2018-12-14T16:57:52.371Z,26.10
2018-12-14T17:00:21.263Z,21.67
2018-12-14T17:02:51.305Z,21.03
2018-12-14T17:05:20.213Z,28.77
2018-12-14T17:07:49.081Z,26.63
2018-12-14T17:10:17.945Z,28.27
2018-12-14T17:12:46.961Z,25.07
2018-12-14T17:15:15.808Z,22.27
2018-12-14T17:17:44.886Z,22.23
2018-12-14T17:20:15.008Z,21.73
2018-12-14T17:22:43.898Z,20.27
2018-12-14T17:25:12.742Z,26.37
2018-12-14T17:27:43.546Z,23.53
2018-12-14T17:30:13.809Z,20.70
2018-12-14T17:32:42.633Z,22.67
2018-12-14T17:35:11.446Z,19.10
2018-12-14T17:37:41.878Z,18.40
2018-12-14T17:40:11.419Z,19.10
2018-12-14T17:42:40.273Z,21.13
2018-12-14T17:45:09.208Z,21.20
2018-12-14T17:47:38.061Z,21.67
2018-12-14T17:50:07.349Z,19.17
2018-12-14T17:52:36.553Z,18.27
2018-12-14T17:55:05.453Z,18.60
2018-12-14T17:57:34.358Z,16.80
2018-12-14T18:00:03.373Z,21.37
2018-12-14T18:02:32.307Z,15.10
2018-12-14T18:05:01.164Z,16.17
2018-12-14T18:07:29.986Z,20.60
2018-12-14T18:09:58.872Z,18.50
2018-12-14T18:12:27.732Z,16.40
2018-12-14T18:14:56.605Z,17.80
2018-12-14T18:17:25.466Z,17.13
2018-12-14T18:19:54.311Z,19.43
2018-12-14T18:22:23.785Z,18.33
2018-12-14T18:24:52.857Z,20.43
2018-12-14T18:27:22.172Z,14.93
2018-12-14T18:29:51.078Z,16.47
2018-12-14T18:32:20.281Z,15.43
2018-12-14T18:34:49.173Z,15.53
2018-12-14T18:37:18.055Z,16.77
2018-12-14T18:39:48.336Z,18.30
2018-12-14T18:42:17.720Z,15.97
2018-12-14T18:44:46.593Z,14.90
2018-12-14T18:47:15.633Z,14.10
2018-12-14T18:49:44.487Z,15.03
2018-12-14T18:52:13.332Z,14.20
2018-12-14T18:54:42.278Z,15.33
2018-12-14T18:57:12.461Z,15.87
2018-12-14T18:59:41.354Z,13.57
2018-12-14T19:02:10.250Z,13.87
2018-12-14T19:04:39.089Z,12.17
2018-12-14T19:07:08.073Z,16.90
2018-12-14T19:09:37.324Z,15.80
2018-12-14T19:12:06.208Z,18.63
2018-12-14T19:14:35.663Z,14.10
2018-12-14T19:17:04.510Z,12.17
2018-12-14T19:19:33.404Z,10.57
2018-12-14T19:22:02.241Z,12.90
2018-12-14T19:24:31.249Z,12.43
2018-12-14T19:27:00.113Z,9.23
2018-12-14T19:29:28.921Z,9.83
2018-12-14T19:31:57.775Z,11.73
2018-12-14T19:34:31.370Z,13.47
2018-12-14T19:36:57.561Z,12.23
2018-12-14T19:39:26.712Z,14.23
2018-12-14T19:41:55.572Z,13.20
2018-12-14T19:44:26.021Z,14.10
2018-12-14T19:46:54.865Z,14.07
2018-12-14T19:49:23.715Z,10.47
2018-12-14T19:51:53.078Z,10.73
2018-12-14T19:54:22.152Z,10.37
2018-12-14T19:56:51.417Z,11.87
2018-12-14T19:59:20.329Z,11.17
2018-12-14T20:01:49.173Z,10.13
2018-12-14T20:04:18.037Z,9.10
2018-12-14T20:06:46.891Z,11.43
2018-12-14T20:09:15.777Z,9.93
2018-12-14T20:11:44.638Z,10.80
2018-12-14T20:14:13.532Z,9.83
2018-12-14T20:16:42.361Z,10.90
2018-12-14T20:19:11.251Z,11.07
2018-12-14T20:21:41.371Z,10.67
2018-12-14T20:24:10.262Z,10.73
2018-12-14T20:26:39.106Z,11.83
2018-12-14T20:29:07.979Z,9.93
2018-12-14T20:31:36.836Z,13.53
2018-12-14T20:34:05.682Z,10.97
2018-12-14T20:36:34.797Z,11.57
2018-12-14T20:39:05.290Z,10.77
2018-12-14T20:41:34.173Z,9.40
2018-12-14T20:44:03.038Z,9.93
2018-12-14T20:46:31.921Z,8.87
2018-12-14T20:49:00.765Z,8.97
2018-12-14T20:51:29.615Z,9.83
2018-12-14T20:53:58.648Z,9.97
2018-12-14T20:56:27.628Z,11.30
2018-12-14T20:58:56.468Z,12.53
2018-12-14T21:01:25.341Z,10.30
2018-12-14T21:03:54.195Z,10.60
2018-12-14T21:06:24.452Z,11.83
2018-12-14T21:08:53.354Z,10.03
2018-12-14T21:11:22.176Z,10.07
2018-12-14T21:13:51.021Z,8.53
2018-12-14T21:16:25.888Z,10.80
2018-12-14T21:18:52.007Z,11.37
2018-12-14T21:21:20.990Z,9.73
2018-12-14T21:23:49.870Z,10.40
2018-12-14T21:26:18.726Z,11.10
2018-12-14T21:28:47.610Z,9.90
2018-12-14T21:31:16.492Z,10.33
2018-12-14T21:33:45.362Z,11.77
2018-12-14T21:36:14.321Z,12.33
2018-12-14T21:38:43.316Z,13.23
2018-12-14T21:41:12.160Z,10.60
2018-12-14T21:43:41.085Z,13.23
2018-12-14T21:46:09.933Z,15.17
2018-12-14T21:48:38.809Z,11.53
2018-12-14T21:51:07.821Z,13.50
2018-12-14T21:53:36.672Z,14.10
2018-12-14T21:56:05.548Z,14.83
2018-12-14T21:58:34.426Z,16.33
2018-12-14T22:01:03.241Z,14.63
2018-12-14T22:03:32.217Z,18.20
2018-12-14T22:06:01.084Z,18.73
2018-12-14T22:08:29.924Z,15.60
2018-12-14T22:10:58.938Z,16.83
2018-12-14T22:13:27.788Z,19.67
2018-12-14T22:15:56.729Z,17.47
2018-12-14T22:18:25.615Z,19.23
2018-12-14T22:20:54.468Z,21.07
2018-12-14T22:23:23.433Z,17.53
2018-12-14T22:25:52.288Z,16.07
2018-12-14T22:28:21.097Z,17.07
2018-12-14T22:30:49.921Z,20.73
2018-12-14T22:33:18.794Z,18.50
2018-12-14T22:35:47.613Z,18.80
2018-12-14T22:38:16.564Z,15.80
2018-12-14T22:40:45.494Z,17.03
2018-12-14T22:43:14.301Z,19.13
2018-12-14T22:45:43.145Z,17.90
2018-12-14T22:48:11.953Z,15.67
2018-12-14T22:50:40.771Z,19.97
2018-12-14T22:53:09.592Z,17.33
2018-12-14T22:55:39.657Z,20.97
2018-12-14T22:58:08.493Z,19.43
2018-12-14T23:00:41.949Z,19.07
2018-12-14T23:03:10.765Z,19.13
2018-12-14T23:05:39.644Z,18.63
2018-12-14T23:08:08.512Z,21.87
2018-12-14T23:10:37.332Z,20.23
2018-12-14T23:13:06.240Z,20.30
2018-12-14T23:15:35.094Z,20.60
2018-12-14T23:18:03.970Z,20.27
2018-12-14T23:20:32.932Z,20.73
2018-12-14T23:23:01.789Z,24.17
2018-12-14T23:25:30.621Z,24.27
2018-12-14T23:27:59.474Z,25.83
2018-12-14T23:30:28.305Z,29.70
2018-12-14T23:32:57.174Z,23.07
2018-12-14T23:35:26.046Z,25.00
2018-12-14T23:37:54.899Z,26.13
2018-12-14T23:40:23.748Z,23.70
2018-12-14T23:42:52.682Z,25.77
2018-12-14T23:45:21.512Z,24.70
2018-12-14T23:47:50.350Z,28.35
2018-12-14T23:50:19.421Z,26.40
2018-12-14T23:52:48.265Z,29.63
2018-12-14T23:55:17.217Z,23.27
2018-12-14T23:57:46.152Z,23.60
